sensor_id;sensor_type;location;lat;lon;timestamp;pressure;altitude;pressure_sealevel;temperature;humidity
29467;BME280;60968;37.490;-122.288;2022-09-02T00:01:52;98128.88;;;29.02;38.14
29467;BME280;60968;37.490;-122.288;2022-09-02T00:04:54;98125.13;;;28.87;38.67
29467;BME280;60968;37.490;-122.288;2022-09-02T00:07:56;98118.56;;;28.81;38.57
29467;BME280;60968;37.490;-122.288;2022-09-02T00:11:01;98122.84;;;28.66;38.72
29467;BME280;60968;37.490;-122.288;2022-09-02T00:14:05;98117.16;;;28.69;38.97
29467;BME280;60968;37.490;-122.288;2022-09-02T00:17:06;98117.31;;;28.67;39.25
29467;BME280;60968;37.490;-122.288;2022-09-02T00:20:08;98125.84;;;28.63;39.38
29467;BME280;60968;37.490;-122.288;2022-09-02T00:23:11;98119.72;;;28.52;39.59
29467;BME280;60968;37.490;-122.288;2022-09-02T00:26:12;98120.13;;;28.39;39.83
29467;BME280;60968;37.490;-122.288;2022-09-02T00:29:15;98122.53;;;28.24;40.18
29467;BME280;60968;37.490;-122.288;2022-09-02T00:32:16;98126.22;;;28.05;40.62
29467;BME280;60968;37.490;-122.288;2022-09-02T00:35:17;98120.19;;;27.85;41.18
29467;BME280;60968;37.490;-122.288;2022-09-02T00:38:18;98112.06;;;27.77;41.40
29467;BME280;60968;37.490;-122.288;2022-09-02T00:41:25;98123.50;;;27.79;41.42
29467;BME280;60968;37.490;-122.288;2022-09-02T00:44:26;98117.66;;;27.84;39.46
29467;BME280;60968;37.490;-122.288;2022-09-02T00:47:27;98110.84;;;27.89;39.93
29467;BME280;60968;37.490;-122.288;2022-09-02T00:50:32;98113.69;;;27.70;41.17
29467;BME280;60968;37.490;-122.288;2022-09-02T00:53:34;98119.72;;;27.54;40.83
29467;BME280;60968;37.490;-122.288;2022-09-02T00:56:42;98116.13;;;27.63;37.29
29467;BME280;60968;37.490;-122.288;2022-09-02T01:00:08;98115.28;;;27.63;34.11
29467;BME280;60968;37.490;-122.288;2022-09-02T01:03:13;98119.56;;;27.55;33.57
29467;BME280;60968;37.490;-122.288;2022-09-02T01:06:21;98116.59;;;27.59;31.97
29467;BME280;60968;37.490;-122.288;2022-09-02T01:09:23;98111.31;;;27.67;31.12
29467;BME280;60968;37.490;-122.288;2022-09-02T01:12:24;98110.19;;;27.69;30.46
29467;BME280;60968;37.490;-122.288;2022-09-02T01:15:26;98099.63;;;27.68;29.99
29467;BME280;60968;37.490;-122.288;2022-09-02T01:18:29;98097.09;;;27.48;29.76
29467;BME280;60968;37.490;-122.288;2022-09-02T01:21:31;98112.03;;;27.41;29.53
29467;BME280;60968;37.490;-122.288;2022-09-02T01:24:33;98108.88;;;27.28;29.66
29467;BME280;60968;37.490;-122.288;2022-09-02T01:27:34;98095.31;;;27.11;29.51
29467;BME280;60968;37.490;-122.288;2022-09-02T01:30:39;98099.88;;;27.01;29.44
29467;BME280;60968;37.490;-122.288;2022-09-02T01:33:40;98101.06;;;26.88;29.29
29467;BME280;60968;37.490;-122.288;2022-09-02T01:36:42;98104.06;;;26.76;29.39
29467;BME280;60968;37.490;-122.288;2022-09-02T01:39:43;98102.09;;;26.68;29.22
29467;BME280;60968;37.490;-122.288;2022-09-02T01:42:45;98098.91;;;26.54;29.49
29467;BME280;60968;37.490;-122.288;2022-09-02T01:45:47;98095.72;;;26.41;28.85
29467;BME280;60968;37.490;-122.288;2022-09-02T01:48:50;98088.00;;;26.28;28.72
29467;BME280;60968;37.490;-122.288;2022-09-02T01:51:55;98085.50;;;26.27;26.86
29467;BME280;60968;37.490;-122.288;2022-09-02T01:54:58;98086.06;;;26.30;26.97
29467;BME280;60968;37.490;-122.288;2022-09-02T01:57:59;98085.31;;;26.38;26.19
29467;BME280;60968;37.490;-122.288;2022-09-02T02:01:01;98080.69;;;26.40;25.10
29467;BME280;60968;37.490;-122.288;2022-09-02T02:04:02;98078.41;;;26.45;24.66
29467;BME280;60968;37.490;-122.288;2022-09-02T02:07:03;98082.09;;;26.44;24.13
29467;BME280;60968;37.490;-122.288;2022-09-02T02:10:05;98080.28;;;26.35;24.19
29467;BME280;60968;37.490;-122.288;2022-09-02T02:13:09;98067.38;;;26.21;24.36
29467;BME280;60968;37.490;-122.288;2022-09-02T02:16:10;98066.97;;;26.15;23.85
29467;BME280;60968;37.490;-122.288;2022-09-02T02:19:11;98073.13;;;26.16;22.99
29467;BME280;60968;37.490;-122.288;2022-09-02T02:22:12;98066.44;;;26.12;23.01
29467;BME280;60968;37.490;-122.288;2022-09-02T02:25:13;98063.19;;;26.08;22.00
29467;BME280;60968;37.490;-122.288;2022-09-02T02:28:14;98054.91;;;26.01;22.65
29467;BME280;60968;37.490;-122.288;2022-09-02T02:31:15;98057.84;;;25.98;21.61
29467;BME280;60968;37.490;-122.288;2022-09-02T02:34:16;98054.22;;;25.90;20.83
29467;BME280;60968;37.490;-122.288;2022-09-02T02:37:17;98056.88;;;25.90;19.20
29467;BME280;60968;37.490;-122.288;2022-09-02T02:40:20;98059.69;;;25.78;19.13
29467;BME280;60968;37.490;-122.288;2022-09-02T02:43:22;98064.19;;;25.68;18.73
29467;BME280;60968;37.490;-122.288;2022-09-02T02:46:23;98058.00;;;25.48;18.54
29467;BME280;60968;37.490;-122.288;2022-09-02T02:49:24;98067.78;;;25.28;19.65
29467;BME280;60968;37.490;-122.288;2022-09-02T02:52:24;98063.81;;;25.12;22.05
29467;BME280;60968;37.490;-122.288;2022-09-02T02:55:25;98072.09;;;25.09;18.50
29467;BME280;60968;37.490;-122.288;2022-09-02T02:58:26;98071.97;;;25.11;17.69
29467;BME280;60968;37.490;-122.288;2022-09-02T03:01:28;98068.84;;;25.06;17.64
29467;BME280;60968;37.490;-122.288;2022-09-02T03:04:29;98064.06;;;24.90;18.22
29467;BME280;60968;37.490;-122.288;2022-09-02T03:07:30;98067.63;;;24.69;19.04
29467;BME280;60968;37.490;-122.288;2022-09-02T03:10:31;98077.31;;;24.49;24.52
29467;BME280;60968;37.490;-122.288;2022-09-02T03:13:33;98089.81;;;24.06;43.99
29467;BME280;60968;37.490;-122.288;2022-09-02T03:16:37;98089.66;;;23.54;45.75
29467;BME280;60968;37.490;-122.288;2022-09-02T03:19:37;98104.34;;;23.26;47.52
29467;BME280;60968;37.490;-122.288;2022-09-02T03:22:38;98107.78;;;22.83;52.23
29467;BME280;60968;37.490;-122.288;2022-09-02T03:25:42;98107.22;;;22.32;54.82
29467;BME280;60968;37.490;-122.288;2022-09-02T03:28:43;98113.56;;;22.07;56.21
29467;BME280;60968;37.490;-122.288;2022-09-02T03:31:44;98120.81;;;21.81;59.12
29467;BME280;60968;37.490;-122.288;2022-09-02T03:34:47;98117.03;;;21.48;60.41
29467;BME280;60968;37.490;-122.288;2022-09-02T03:37:49;98129.16;;;21.26;61.52
29467;BME280;60968;37.490;-122.288;2022-09-02T03:40:50;98136.16;;;21.27;61.57
29467;BME280;60968;37.490;-122.288;2022-09-02T03:43:51;98132.81;;;21.12;63.30
29467;BME280;60968;37.490;-122.288;2022-09-02T03:46:53;98132.50;;;21.04;63.45
29467;BME280;60968;37.490;-122.288;2022-09-02T03:49:54;98139.72;;;21.02;63.94
29467;BME280;60968;37.490;-122.288;2022-09-02T03:52:56;98136.97;;;20.90;65.21
29467;BME280;60968;37.490;-122.288;2022-09-02T03:56:02;98145.44;;;20.83;65.94
29467;BME280;60968;37.490;-122.288;2022-09-02T03:59:05;98160.28;;;20.72;66.87
29467;BME280;60968;37.490;-122.288;2022-09-02T04:02:06;98156.47;;;20.64;67.29
29467;BME280;60968;37.490;-122.288;2022-09-02T04:05:08;98161.44;;;20.55;67.48
29467;BME280;60968;37.490;-122.288;2022-09-02T04:08:10;98168.00;;;20.50;67.16
29467;BME280;60968;37.490;-122.288;2022-09-02T04:11:13;98177.84;;;20.48;66.77
29467;BME280;60968;37.490;-122.288;2022-09-02T04:14:16;98174.88;;;20.52;65.30
29467;BME280;60968;37.490;-122.288;2022-09-02T04:17:17;98166.72;;;20.55;64.43
29467;BME280;60968;37.490;-122.288;2022-09-02T04:20:17;98185.69;;;20.62;62.40
29467;BME280;60968;37.490;-122.288;2022-09-02T04:23:20;98178.09;;;20.70;61.26
29467;BME280;60968;37.490;-122.288;2022-09-02T04:26:22;98176.78;;;20.63;63.15
29467;BME280;60968;37.490;-122.288;2022-09-02T04:29:22;98185.56;;;20.51;63.36
29467;BME280;60968;37.490;-122.288;2022-09-02T04:32:23;98177.84;;;20.48;62.07
29467;BME280;60968;37.490;-122.288;2022-09-02T04:35:24;98185.22;;;20.43;61.82
29467;BME280;60968;37.490;-122.288;2022-09-02T04:38:25;98188.69;;;20.30;64.07
29467;BME280;60968;37.490;-122.288;2022-09-02T04:41:28;98191.53;;;20.14;65.91
29467;BME280;60968;37.490;-122.288;2022-09-02T04:44:31;98193.06;;;20.04;66.36
29467;BME280;60968;37.490;-122.288;2022-09-02T04:47:33;98193.38;;;19.99;66.33
29467;BME280;60968;37.490;-122.288;2022-09-02T04:50:41;98196.03;;;19.99;66.33
29467;BME280;60968;37.490;-122.288;2022-09-02T04:53:43;98186.75;;;20.07;65.89
29467;BME280;60968;37.490;-122.288;2022-09-02T04:56:45;98189.00;;;20.13;65.59
29467;BME280;60968;37.490;-122.288;2022-09-02T04:59:45;98190.66;;;20.14;65.98
29467;BME280;60968;37.490;-122.288;2022-09-02T05:02:46;98196.94;;;20.13;65.77
29467;BME280;60968;37.490;-122.288;2022-09-02T05:05:57;98190.66;;;20.14;65.77
29467;BME280;60968;37.490;-122.288;2022-09-02T05:08:59;98196.38;;;20.08;65.47
29467;BME280;60968;37.490;-122.288;2022-09-02T05:11:59;98202.09;;;20.01;66.03
29467;BME280;60968;37.490;-122.288;2022-09-02T05:15:01;98198.13;;;19.94;66.13
29467;BME280;60968;37.490;-122.288;2022-09-02T05:18:01;98201.94;;;19.90;66.54
29467;BME280;60968;37.490;-122.288;2022-09-02T05:21:05;98198.75;;;19.85;67.46
29467;BME280;60968;37.490;-122.288;2022-09-02T05:24:09;98192.91;;;19.80;67.63
29467;BME280;60968;37.490;-122.288;2022-09-02T05:27:11;98192.34;;;19.75;67.84
29467;BME280;60968;37.490;-122.288;2022-09-02T05:30:12;98196.44;;;19.79;66.21
29467;BME280;60968;37.490;-122.288;2022-09-02T05:33:13;98197.78;;;19.86;64.28
29467;BME280;60968;37.490;-122.288;2022-09-02T05:36:17;98204.47;;;19.92;63.19
29467;BME280;60968;37.490;-122.288;2022-09-02T05:39:20;98202.16;;;20.00;63.06
29467;BME280;60968;37.490;-122.288;2022-09-02T05:42:20;98197.84;;;19.99;64.60
29467;BME280;60968;37.490;-122.288;2022-09-02T05:45:23;98196.69;;;20.03;63.43
29467;BME280;60968;37.490;-122.288;2022-09-02T05:48:23;98199.34;;;20.03;63.31
29467;BME280;60968;37.490;-122.288;2022-09-02T05:51:24;98204.72;;;20.01;63.33
29467;BME280;60968;37.490;-122.288;2022-09-02T05:54:27;98209.38;;;20.11;64.36
29467;BME280;60968;37.490;-122.288;2022-09-02T05:57:29;98205.63;;;19.87;66.31
29467;BME280;60968;37.490;-122.288;2022-09-02T06:00:30;98214.88;;;19.66;67.42
29467;BME280;60968;37.490;-122.288;2022-09-02T06:03:32;98224.50;;;19.25;67.81
29467;BME280;60968;37.490;-122.288;2022-09-02T06:06:34;98222.19;;;18.76;70.40
29467;BME280;60968;37.490;-122.288;2022-09-02T06:09:35;98218.22;;;18.54;72.41
29467;BME280;60968;37.490;-122.288;2022-09-02T06:12:36;98218.03;;;18.27;74.54
29467;BME280;60968;37.490;-122.288;2022-09-02T06:15:41;98220.13;;;18.06;76.51
29467;BME280;60968;37.490;-122.288;2022-09-02T06:18:42;98215.63;;;18.08;76.41
29467;BME280;60968;37.490;-122.288;2022-09-02T06:21:43;98210.31;;;18.24;75.69
29467;BME280;60968;37.490;-122.288;2022-09-02T06:24:44;98211.59;;;18.47;74.63
29467;BME280;60968;37.490;-122.288;2022-09-02T06:27:45;98209.38;;;18.69;72.21
29467;BME280;60968;37.490;-122.288;2022-09-02T06:30:46;98211.84;;;18.87;69.78
29467;BME280;60968;37.490;-122.288;2022-09-02T06:33:52;98205.63;;;19.02;66.29
29467;BME280;60968;37.490;-122.288;2022-09-02T06:36:55;98211.00;;;19.15;63.29
29467;BME280;60968;37.490;-122.288;2022-09-02T06:39:56;98212.16;;;19.26;62.92
29467;BME280;60968;37.490;-122.288;2022-09-02T06:42:57;98217.06;;;19.03;68.37
29467;BME280;60968;37.490;-122.288;2022-09-02T06:45:58;98218.50;;;18.64;71.92
29467;BME280;60968;37.490;-122.288;2022-09-02T06:49:01;98218.47;;;18.19;73.25
29467;BME280;60968;37.490;-122.288;2022-09-02T06:52:02;98211.72;;;17.83;75.23
29467;BME280;60968;37.490;-122.288;2022-09-02T06:55:03;98218.19;;;17.61;77.64
29467;BME280;60968;37.490;-122.288;2022-09-02T06:58:04;98214.47;;;17.49;80.14
29467;BME280;60968;37.490;-122.288;2022-09-02T07:01:08;98211.88;;;17.32;82.31
29467;BME280;60968;37.490;-122.288;2022-09-02T07:04:09;98215.31;;;17.34;82.66
29467;BME280;60968;37.490;-122.288;2022-09-02T07:07:12;98224.66;;;17.40;82.10
29467;BME280;60968;37.490;-122.288;2022-09-02T07:10:13;98223.44;;;17.29;81.03
29467;BME280;60968;37.490;-122.288;2022-09-02T07:13:14;98216.25;;;17.00;81.48
29467;BME280;60968;37.490;-122.288;2022-09-02T07:16:16;98213.63;;;17.00;82.59
29467;BME280;60968;37.490;-122.288;2022-09-02T07:19:19;98218.75;;;16.85;81.59
29467;BME280;60968;37.490;-122.288;2022-09-02T07:22:20;98225.34;;;16.76;81.55
29467;BME280;60968;37.490;-122.288;2022-09-02T07:25:21;98229.94;;;16.55;82.63
29467;BME280;60968;37.490;-122.288;2022-09-02T07:28:22;98222.28;;;16.33;84.39
29467;BME280;60968;37.490;-122.288;2022-09-02T07:31:23;98225.59;;;16.19;85.36
29467;BME280;60968;37.490;-122.288;2022-09-02T07:34:24;98234.69;;;16.12;86.65
29467;BME280;60968;37.490;-122.288;2022-09-02T07:37:26;98235.13;;;16.03;87.19
29467;BME280;60968;37.490;-122.288;2022-09-02T07:40:27;98232.91;;;15.95;88.07
29467;BME280;60968;37.490;-122.288;2022-09-02T07:43:30;98231.34;;;15.91;88.85
29467;BME280;60968;37.490;-122.288;2022-09-02T07:46:31;98230.47;;;15.90;89.86
29467;BME280;60968;37.490;-122.288;2022-09-02T07:49:32;98236.78;;;15.86;89.70
29467;BME280;60968;37.490;-122.288;2022-09-02T07:52:33;98234.16;;;15.86;89.55
29467;BME280;60968;37.490;-122.288;2022-09-02T07:55:36;98238.50;;;15.87;90.10
29467;BME280;60968;37.490;-122.288;2022-09-02T07:58:37;98243.19;;;15.81;90.45
29467;BME280;60968;37.490;-122.288;2022-09-02T08:01:39;98236.44;;;15.75;91.22
29467;BME280;60968;37.490;-122.288;2022-09-02T08:04:40;98241.69;;;15.75;91.11
29467;BME280;60968;37.490;-122.288;2022-09-02T08:07:41;98241.41;;;15.62;92.47
29467;BME280;60968;37.490;-122.288;2022-09-02T08:10:42;98237.22;;;15.58;92.89
29467;BME280;60968;37.490;-122.288;2022-09-02T08:13:43;98241.13;;;15.49;94.68
29467;BME280;60968;37.490;-122.288;2022-09-02T08:16:46;98248.09;;;15.50;94.00
29467;BME280;60968;37.490;-122.288;2022-09-02T08:19:47;98245.19;;;15.37;95.40
29467;BME280;60968;37.490;-122.288;2022-09-02T08:22:48;98247.25;;;15.31;96.05
29467;BME280;60968;37.490;-122.288;2022-09-02T08:25:52;98234.34;;;15.26;96.87
29467;BME280;60968;37.490;-122.288;2022-09-02T08:28:54;98236.81;;;15.29;97.15
29467;BME280;60968;37.490;-122.288;2022-09-02T08:31:56;98234.63;;;15.39;96.80
29467;BME280;60968;37.490;-122.288;2022-09-02T08:34:58;98227.25;;;15.47;96.06
29467;BME280;60968;37.490;-122.288;2022-09-02T08:37:59;98222.63;;;15.52;95.72
29467;BME280;60968;37.490;-122.288;2022-09-02T08:41:00;98219.06;;;15.53;95.35
29467;BME280;60968;37.490;-122.288;2022-09-02T08:44:03;98222.47;;;15.55;95.68
29467;BME280;60968;37.490;-122.288;2022-09-02T08:47:10;98217.84;;;15.60;95.24
29467;BME280;60968;37.490;-122.288;2022-09-02T08:50:17;98225.88;;;15.57;95.46
29467;BME280;60968;37.490;-122.288;2022-09-02T08:53:44;98233.69;;;15.59;95.50
29467;BME280;60968;37.490;-122.288;2022-09-02T08:56:46;98228.38;;;15.60;95.08
29467;BME280;60968;37.490;-122.288;2022-09-02T08:59:49;98231.13;;;15.57;94.52
29467;BME280;60968;37.490;-122.288;2022-09-02T09:03:04;98230.50;;;15.52;94.94
29467;BME280;60968;37.490;-122.288;2022-09-02T09:13:58;98234.88;;;15.33;96.39
29467;BME280;60968;37.490;-122.288;2022-09-02T09:17:22;98229.28;;;15.21;96.69
29467;BME280;60968;37.490;-122.288;2022-09-02T09:20:37;98222.69;;;15.13;97.47
29467;BME280;60968;37.490;-122.288;2022-09-02T09:23:39;98231.03;;;15.02;98.69
29467;BME280;60968;37.490;-122.288;2022-09-02T09:26:43;98231.31;;;14.96;99.28
29467;BME280;60968;37.490;-122.288;2022-09-02T09:29:44;98235.13;;;14.88;100.00
29467;BME280;60968;37.490;-122.288;2022-09-02T09:33:15;98237.69;;;14.90;99.96
29467;BME280;60968;37.490;-122.288;2022-09-02T09:36:10;98234.16;;;14.91;100.00
29467;BME280;60968;37.490;-122.288;2022-09-02T09:42:34;98232.75;;;15.03;100.00
29467;BME280;60968;37.490;-122.288;2022-09-02T09:45:44;98229.06;;;15.07;100.00
29467;BME280;60968;37.490;-122.288;2022-09-02T09:48:48;98239.63;;;15.05;100.00
29467;BME280;60968;37.490;-122.288;2022-09-02T09:51:55;98244.94;;;15.04;100.00
29467;BME280;60968;37.490;-122.288;2022-09-02T09:55:15;98239.94;;;14.98;100.00
29467;BME280;60968;37.490;-122.288;2022-09-02T09:58:20;98243.91;;;14.87;100.00
29467;BME280;60968;37.490;-122.288;2022-09-02T10:04:31;98244.59;;;14.72;100.00
29467;BME280;60968;37.490;-122.288;2022-09-02T10:07:40;98243.88;;;14.68;100.00
29467;BME280;60968;37.490;-122.288;2022-09-02T10:11:05;98235.59;;;14.57;100.00
29467;BME280;60968;37.490;-122.288;2022-09-02T10:14:18;98242.72;;;14.53;100.00
29467;BME280;60968;37.490;-122.288;2022-09-02T10:24:29;98259.34;;;14.52;100.00
29467;BME280;60968;37.490;-122.288;2022-09-02T10:37:24;98258.28;;;14.36;100.00
29467;BME280;60968;37.490;-122.288;2022-09-02T10:40:54;98259.41;;;14.30;100.00
29467;BME280;60968;37.490;-122.288;2022-09-02T10:50:37;98260.47;;;14.04;100.00
29467;BME280;60968;37.490;-122.288;2022-09-02T10:56:54;98260.53;;;14.02;100.00
29467;BME280;60968;37.490;-122.288;2022-09-02T11:00:17;98258.63;;;14.06;100.00
29467;BME280;60968;37.490;-122.288;2022-09-02T11:03:39;98261.09;;;14.11;100.00
29467;BME280;60968;37.490;-122.288;2022-09-02T11:06:43;98255.78;;;14.12;100.00
29467;BME280;60968;37.490;-122.288;2022-09-02T11:09:55;98257.72;;;14.07;100.00
29467;BME280;60968;37.490;-122.288;2022-09-02T11:13:13;98267.78;;;13.96;100.00
29467;BME280;60968;37.490;-122.288;2022-09-02T11:16:30;98265.28;;;13.93;100.00
29467;BME280;60968;37.490;-122.288;2022-09-02T11:26:32;98266.38;;;13.65;100.00
29467;BME280;60968;37.490;-122.288;2022-09-02T11:35:51;98267.09;;;13.21;100.00
29467;BME280;60968;37.490;-122.288;2022-09-02T11:42:44;98264.97;;;13.07;100.00
29467;BME280;60968;37.490;-122.288;2022-09-02T11:56:24;98264.69;;;12.91;100.00
29467;BME280;60968;37.490;-122.288;2022-09-02T12:03:19;98280.81;;;12.79;100.00
29467;BME280;60968;37.490;-122.288;2022-09-02T12:06:21;98277.50;;;12.74;100.00
29467;BME280;60968;37.490;-122.288;2022-09-02T12:09:43;98283.59;;;12.74;100.00
29467;BME280;60968;37.490;-122.288;2022-09-02T12:15:45;98290.84;;;12.66;100.00
29467;BME280;60968;37.490;-122.288;2022-09-02T12:28:27;98298.69;;;12.66;100.00
29467;BME280;60968;37.490;-122.288;2022-09-02T12:31:41;98300.41;;;12.65;100.00
29467;BME280;60968;37.490;-122.288;2022-09-02T12:37:57;98305.59;;;12.67;100.00
29467;BME280;60968;37.490;-122.288;2022-09-02T12:41:25;98316.09;;;12.65;100.00
29467;BME280;60968;37.490;-122.288;2022-09-02T12:48:01;98320.00;;;12.53;100.00
29467;BME280;60968;37.490;-122.288;2022-09-02T12:51:09;98314.06;;;12.48;100.00
29467;BME280;60968;37.490;-122.288;2022-09-02T12:54:10;98321.22;;;12.43;100.00
29467;BME280;60968;37.490;-122.288;2022-09-02T12:57:11;98325.66;;;12.40;100.00
29467;BME280;60968;37.490;-122.288;2022-09-02T13:00:16;98323.88;;;12.40;100.00
29467;BME280;60968;37.490;-122.288;2022-09-02T13:30:27;98340.28;;;12.45;100.00
29467;BME280;60968;37.490;-122.288;2022-09-02T13:33:35;98352.56;;;12.43;100.00
29467;BME280;60968;37.490;-122.288;2022-09-02T13:36:44;98354.28;;;12.43;100.00
29467;BME280;60968;37.490;-122.288;2022-09-02T13:39:47;98356.91;;;12.43;100.00
29467;BME280;60968;37.490;-122.288;2022-09-02T13:43:09;98362.34;;;12.37;100.00
29467;BME280;60968;37.490;-122.288;2022-09-02T13:46:15;98372.69;;;12.40;100.00
29467;BME280;60968;37.490;-122.288;2022-09-02T13:49:22;98370.91;;;12.40;100.00
29467;BME280;60968;37.490;-122.288;2022-09-02T13:52:30;98374.50;;;12.38;100.00
29467;BME280;60968;37.490;-122.288;2022-09-02T13:55:32;98372.16;;;12.28;100.00
29467;BME280;60968;37.490;-122.288;2022-09-02T13:58:49;98381.91;;;12.23;100.00
29467;BME280;60968;37.490;-122.288;2022-09-02T14:01:51;98383.81;;;12.18;100.00
29467;BME280;60968;37.490;-122.288;2022-09-02T14:04:56;98384.88;;;12.11;100.00
29467;BME280;60968;37.490;-122.288;2022-09-02T14:08:00;98382.25;;;12.11;100.00
29467;BME280;60968;37.490;-122.288;2022-09-02T14:11:04;98383.03;;;12.14;100.00
29467;BME280;60968;37.490;-122.288;2022-09-02T14:14:08;98385.81;;;12.10;100.00
29467;BME280;60968;37.490;-122.288;2022-09-02T14:17:24;98384.75;;;12.15;100.00
29467;BME280;60968;37.490;-122.288;2022-09-02T14:20:26;98382.00;;;12.20;100.00
29467;BME280;60968;37.490;-122.288;2022-09-02T14:23:29;98384.66;;;12.18;100.00
29467;BME280;60968;37.490;-122.288;2022-09-02T14:26:35;98386.19;;;12.26;100.00
29467;BME280;60968;37.490;-122.288;2022-09-02T14:29:45;98382.84;;;12.49;100.00
29467;BME280;60968;37.490;-122.288;2022-09-02T14:32:47;98383.81;;;12.46;100.00
29467;BME280;60968;37.490;-122.288;2022-09-02T14:36:00;98388.44;;;12.65;100.00
29467;BME280;60968;37.490;-122.288;2022-09-02T14:39:28;98390.09;;;12.67;100.00
29467;BME280;60968;37.490;-122.288;2022-09-02T14:42:29;98390.75;;;12.74;100.00
29467;BME280;60968;37.490;-122.288;2022-09-02T14:45:32;98402.84;;;12.77;100.00
29467;BME280;60968;37.490;-122.288;2022-09-02T14:48:37;98398.88;;;12.92;100.00
29467;BME280;60968;37.490;-122.288;2022-09-02T14:51:42;98404.91;;;12.94;100.00
29467;BME280;60968;37.490;-122.288;2022-09-02T14:54:48;98409.00;;;13.02;100.00
29467;BME280;60968;37.490;-122.288;2022-09-02T14:58:00;98406.91;;;13.12;100.00
29467;BME280;60968;37.490;-122.288;2022-09-02T15:01:01;98401.78;;;13.34;100.00
29467;BME280;60968;37.490;-122.288;2022-09-02T15:04:03;98401.44;;;13.45;100.00
29467;BME280;60968;37.490;-122.288;2022-09-02T15:07:05;98411.75;;;13.73;100.00
29467;BME280;60968;37.490;-122.288;2022-09-02T15:10:07;98423.84;;;13.78;100.00
29467;BME280;60968;37.490;-122.288;2022-09-02T15:13:34;98418.47;;;13.81;100.00
29467;BME280;60968;37.490;-122.288;2022-09-02T15:16:35;98421.16;;;13.79;100.00
29467;BME280;60968;37.490;-122.288;2022-09-02T15:19:36;98420.59;;;13.95;100.00
29467;BME280;60968;37.490;-122.288;2022-09-02T15:22:37;98420.16;;;14.51;100.00
29467;BME280;60968;37.490;-122.288;2022-09-02T15:25:37;98422.69;;;14.77;100.00
29467;BME280;60968;37.490;-122.288;2022-09-02T15:28:38;98427.50;;;14.87;100.00
29467;BME280;60968;37.490;-122.288;2022-09-02T15:31:40;98431.91;;;14.87;100.00
29467;BME280;60968;37.490;-122.288;2022-09-02T15:34:41;98440.19;;;14.98;100.00
29467;BME280;60968;37.490;-122.288;2022-09-02T15:37:43;98434.47;;;14.88;100.00
29467;BME280;60968;37.490;-122.288;2022-09-02T15:40:45;98437.50;;;15.00;100.00
29467;BME280;60968;37.490;-122.288;2022-09-02T15:43:47;98439.84;;;15.06;100.00
29467;BME280;60968;37.490;-122.288;2022-09-02T15:46:50;98440.25;;;15.17;100.00
29467;BME280;60968;37.490;-122.288;2022-09-02T15:49:55;98442.09;;;15.56;100.00
29467;BME280;60968;37.490;-122.288;2022-09-02T15:52:56;98448.25;;;15.97;100.00
29467;BME280;60968;37.490;-122.288;2022-09-02T15:55:57;98449.63;;;16.24;100.00
29467;BME280;60968;37.490;-122.288;2022-09-02T15:59:01;98457.28;;;16.29;99.41
29467;BME280;60968;37.490;-122.288;2022-09-02T16:02:02;98452.00;;;16.48;98.02
29467;BME280;60968;37.490;-122.288;2022-09-02T16:05:04;98453.97;;;16.81;92.12
29467;BME280;60968;37.490;-122.288;2022-09-02T16:08:06;98453.94;;;17.00;93.47
29467;BME280;60968;37.490;-122.288;2022-09-02T16:11:08;98458.97;;;17.57;88.10
29467;BME280;60968;37.490;-122.288;2022-09-02T16:14:09;98461.16;;;17.14;92.06
29467;BME280;60968;37.490;-122.288;2022-09-02T16:17:11;98458.69;;;17.97;86.65
29467;BME280;60968;37.490;-122.288;2022-09-02T16:20:14;98451.78;;;17.43;89.67
29467;BME280;60968;37.490;-122.288;2022-09-02T16:23:15;98461.84;;;17.53;88.82
29467;BME280;60968;37.490;-122.288;2022-09-02T16:26:36;98448.84;;;17.32;89.92
29467;BME280;60968;37.490;-122.288;2022-09-02T16:29:37;98461.81;;;17.70;86.54
29467;BME280;60968;37.490;-122.288;2022-09-02T16:32:40;98466.22;;;17.87;87.07
29467;BME280;60968;37.490;-122.288;2022-09-02T16:35:41;98460.44;;;18.14;84.36
29467;BME280;60968;37.490;-122.288;2022-09-02T16:38:41;98464.69;;;18.16;83.88
29467;BME280;60968;37.490;-122.288;2022-09-02T16:41:45;98472.19;;;18.24;83.70
29467;BME280;60968;37.490;-122.288;2022-09-02T16:44:49;98483.84;;;18.52;80.97
29467;BME280;60968;37.490;-122.288;2022-09-02T16:47:49;98482.19;;;18.51;80.28
29467;BME280;60968;37.490;-122.288;2022-09-02T16:50:51;98481.47;;;18.31;78.70
29467;BME280;60968;37.490;-122.288;2022-09-02T16:53:53;98482.41;;;18.30;78.22
29467;BME280;60968;37.490;-122.288;2022-09-02T16:56:54;98478.09;;;18.61;76.32
29467;BME280;60968;37.490;-122.288;2022-09-02T16:59:56;98485.38;;;19.04;74.37
29467;BME280;60968;37.490;-122.288;2022-09-02T17:02:58;98482.03;;;20.20;69.23
29467;BME280;60968;37.490;-122.288;2022-09-02T17:05:59;98484.78;;;22.71;54.92
29467;BME280;60968;37.490;-122.288;2022-09-02T17:09:02;98487.13;;;25.07;47.99
29467;BME280;60968;37.490;-122.288;2022-09-02T17:12:03;98479.06;;;27.54;44.22
29467;BME280;60968;37.490;-122.288;2022-09-02T17:15:04;98481.50;;;28.61;40.78
29467;BME280;60968;37.490;-122.288;2022-09-02T17:18:07;98467.31;;;29.68;37.69
29467;BME280;60968;37.490;-122.288;2022-09-02T17:21:24;98488.19;;;30.27;36.27
29467;BME280;60968;37.490;-122.288;2022-09-02T17:24:26;98484.94;;;29.89;34.98
29467;BME280;60968;37.490;-122.288;2022-09-02T17:27:29;98492.38;;;31.32;34.61
29467;BME280;60968;37.490;-122.288;2022-09-02T17:30:30;98489.38;;;31.68;33.75
29467;BME280;60968;37.490;-122.288;2022-09-02T17:33:31;98486.81;;;32.47;31.90